createdAt,value
2023-03-25T00:00:25.702Z,24.50
2023-03-25T00:01:32.967Z,24.25
2023-03-25T00:02:35.748Z,28.02
2023-03-25T00:03:42.073Z,23.40
2023-03-25T00:04:44.347Z,26.05
2023-03-25T00:05:49.690Z,23.05
2023-03-25T00:06:52.226Z,27.20
2023-03-25T00:07:57.602Z,29.25
2023-03-25T00:08:59.769Z,26.33
2023-03-25T00:10:04.493Z,25.52
2023-03-25T00:11:08.547Z,24.58
2023-03-25T00:12:13.444Z,27.10
2023-03-25T00:13:15.694Z,20.75
2023-03-25T00:14:20.466Z,24.83
2023-03-25T00:15:24.027Z,22.35
2023-03-25T00:16:31.481Z,25.33
2023-03-25T00:17:33.718Z,22.40
2023-03-25T00:18:40.179Z,23.58
2023-03-25T00:19:43.368Z,27.38
2023-03-25T00:20:49.784Z,24.38
2023-03-25T00:21:52.304Z,26.45
2023-03-25T00:22:57.462Z,26.30
2023-03-25T00:23:59.603Z,18.27
2023-03-25T00:25:04.429Z,25.10
2023-03-25T00:26:07.672Z,20.45
2023-03-25T00:27:12.411Z,22.95
2023-03-25T00:28:15.346Z,25.60
2023-03-25T00:29:20.265Z,21.73
2023-03-25T00:30:22.556Z,21.17
2023-03-25T00:31:27.418Z,18.73
2023-03-25T00:32:32.259Z,23.13
2023-03-25T00:33:37.776Z,25.95
2023-03-25T00:34:42.132Z,24.35
2023-03-25T00:35:49.604Z,25.73
2023-03-25T00:36:54.610Z,26.45
2023-03-25T00:38:00.582Z,20.27
2023-03-25T00:39:05.480Z,19.02
2023-03-25T00:40:09.659Z,26.02
2023-03-25T00:41:17.805Z,17.75
2023-03-25T00:42:26.586Z,21.85
2023-03-25T00:43:28.760Z,17.48
2023-03-25T00:44:34.147Z,19.80
2023-03-25T00:45:36.449Z,24.95
2023-03-25T00:46:42.023Z,24.02
2023-03-25T00:47:47.097Z,27.15
2023-03-25T00:48:52.901Z,28.08
2023-03-25T00:49:55.106Z,26.73
2023-03-25T00:50:59.885Z,24.52
2023-03-25T00:52:02.122Z,23.83
2023-03-25T00:53:08.526Z,30.33
2023-03-25T00:54:11.930Z,26.92
2023-03-25T00:55:17.447Z,24.45
2023-03-25T00:56:19.859Z,28.83
2023-03-25T00:57:25.108Z,21.33
2023-03-25T00:58:27.221Z,26.65
2023-03-25T00:59:31.916Z,32.05
2023-03-25T01:00:34.472Z,22.67
2023-03-25T01:01:40.910Z,26.88
2023-03-25T01:02:44.050Z,33.90
2023-03-25T01:03:57.989Z,27.70
2023-03-25T01:05:00.385Z,23.92
2023-03-25T01:06:05.097Z,24.08
2023-03-25T01:07:08.103Z,25.23
2023-03-25T01:08:15.010Z,25.02
2023-03-25T01:09:17.357Z,23.88
2023-03-25T01:10:22.456Z,24.08
2023-03-25T01:11:27.178Z,22.42
2023-03-25T01:12:31.927Z,30.90
2023-03-25T01:13:34.103Z,20.15
2023-03-25T01:14:38.922Z,22.73
2023-03-25T01:15:41.352Z,28.05
2023-03-25T01:16:46.929Z,28.25
2023-03-25T01:17:49.236Z,22.45
2023-03-25T01:18:56.877Z,31.15
2023-03-25T01:19:59.227Z,25.35
2023-03-25T01:21:03.985Z,25.08
2023-03-25T01:22:07.973Z,20.40
2023-03-25T01:23:12.742Z,20.80
2023-03-25T01:24:15.555Z,25.70
2023-03-25T01:25:20.585Z,26.08
2023-03-25T01:26:22.709Z,24.67
2023-03-25T01:27:27.503Z,22.80
2023-03-25T01:28:29.848Z,32.22
2023-03-25T01:29:35.051Z,25.08
2023-03-25T01:30:37.246Z,20.20
2023-03-25T01:31:42.114Z,36.47
2023-03-25T01:32:44.828Z,21.08
2023-03-25T01:33:49.536Z,27.80
2023-03-25T01:34:54.317Z,30.38
2023-03-25T01:35:59.235Z,26.15
2023-03-25T01:37:01.347Z,23.55
2023-03-25T01:38:06.393Z,24.23
2023-03-25T01:39:09.355Z,23.40
2023-03-25T01:40:21.293Z,23.02
2023-03-25T01:41:23.630Z,25.13
2023-03-25T01:42:28.418Z,24.17
2023-03-25T01:43:30.810Z,22.50
2023-03-25T01:45:06.605Z,23.73
2023-03-25T01:46:14.490Z,23.55
2023-03-25T01:47:19.995Z,24.95
2023-03-25T01:48:28.615Z,25.83
2023-03-25T01:49:33.746Z,27.55
2023-03-25T01:50:45.499Z,29.70
2023-03-25T01:51:51.510Z,30.77
2023-03-25T01:52:56.373Z,34.28
2023-03-25T01:53:58.743Z,24.25
2023-03-25T01:55:03.595Z,27.23
2023-03-25T01:56:09.007Z,31.95
2023-03-25T01:57:18.504Z,27.77
2023-03-25T01:58:23.021Z,27.38
2023-03-25T01:59:30.697Z,27.67
2023-03-25T02:00:32.867Z,23.02
2023-03-25T02:01:37.659Z,21.33
2023-03-25T02:02:40.571Z,19.30
2023-03-25T02:03:51.442Z,22.15
2023-03-25T02:05:02.628Z,28.20
2023-03-25T02:06:15.237Z,18.80
2023-03-25T02:07:18.920Z,20.90
2023-03-25T02:08:25.921Z,20.92
2023-03-25T02:09:28.341Z,19.42
2023-03-25T02:10:33.499Z,18.55
2023-03-25T02:11:36.421Z,14.02
2023-03-25T02:12:41.819Z,18.20
2023-03-25T02:13:46.641Z,23.00
2023-03-25T02:14:48.868Z,20.98
2023-03-25T02:16:17.871Z,21.85
2023-03-25T02:17:30.619Z,20.13
2023-03-25T02:18:44.980Z,15.15
2023-03-25T02:20:19.511Z,21.52
2023-03-25T02:22:06.087Z,20.10
2023-03-25T02:23:48.193Z,19.13
2023-03-25T02:25:23.436Z,17.00
2023-03-25T02:27:00.048Z,20.15
2023-03-25T02:28:12.775Z,19.85
2023-03-25T02:29:26.914Z,13.38
2023-03-25T02:30:54.988Z,18.27
2023-03-25T02:32:17.257Z,38.50
2023-03-25T02:33:55.581Z,19.73
2023-03-25T02:35:16.396Z,24.13
2023-03-25T02:36:50.955Z,26.08
2023-03-25T02:38:19.512Z,23.15
2023-03-25T02:39:33.297Z,21.10
2023-03-25T02:40:42.640Z,21.73
2023-03-25T02:41:55.548Z,20.95
2023-03-25T02:43:05.977Z,23.88
2023-03-25T02:44:17.105Z,20.73
2023-03-25T02:45:26.157Z,18.77
2023-03-25T02:46:33.517Z,20.02
2023-03-25T02:47:42.799Z,24.73
2023-03-25T02:48:54.413Z,18.25
2023-03-25T02:51:10.485Z,17.20
2023-03-25T02:53:24.469Z,19.20
2023-03-25T02:54:33.681Z,22.25
2023-03-25T02:55:41.642Z,21.25
2023-03-25T02:56:47.532Z,23.40
2023-03-25T02:57:57.368Z,23.27
2023-03-25T02:59:01.340Z,21.02
2023-03-25T03:00:15.422Z,20.73
2023-03-25T03:01:17.784Z,21.58
2023-03-25T03:02:25.840Z,25.42
2023-03-25T03:03:29.157Z,21.30
2023-03-25T03:04:33.916Z,20.88
2023-03-25T03:05:39.785Z,24.00
2023-03-25T03:06:46.512Z,23.30
2023-03-25T03:07:53.967Z,26.50
2023-03-25T03:09:14.300Z,30.23
2023-03-25T03:10:22.495Z,19.95
2023-03-25T03:11:31.126Z,20.33
2023-03-25T03:12:47.614Z,15.35
2023-03-25T03:14:07.371Z,25.77
2023-03-25T03:15:24.421Z,20.38
2023-03-25T03:16:34.117Z,19.88
2023-03-25T03:17:46.420Z,15.25
2023-03-25T03:18:58.826Z,25.45
2023-03-25T03:20:10.153Z,20.02
2023-03-25T03:21:17.039Z,18.17
2023-03-25T03:22:37.250Z,27.75
2023-03-25T03:23:51.710Z,10.52
2023-03-25T03:25:04.030Z,24.92
2023-03-25T03:26:17.885Z,20.00
2023-03-25T03:27:34.140Z,20.42
2023-03-25T03:28:48.098Z,29.73
2023-03-25T03:29:54.958Z,21.90
2023-03-25T03:31:07.140Z,22.33
2023-03-25T03:32:13.898Z,18.17
2023-03-25T03:33:25.709Z,20.40
2023-03-25T03:34:32.828Z,19.25
2023-03-25T03:35:41.054Z,19.17
2023-03-25T03:36:47.287Z,22.58
2023-03-25T03:37:58.406Z,21.85
2023-03-25T03:39:07.463Z,18.88
2023-03-25T03:40:17.472Z,14.30
2023-03-25T03:41:27.305Z,20.73
2023-03-25T03:42:37.667Z,19.55
2023-03-25T03:43:43.337Z,19.88
2023-03-25T03:44:54.228Z,19.83
2023-03-25T03:46:00.331Z,24.42
2023-03-25T03:47:07.416Z,20.08
2023-03-25T03:48:16.263Z,16.02
2023-03-25T03:49:26.508Z,22.50
2023-03-25T03:50:31.964Z,13.07
2023-03-25T03:51:41.727Z,20.05
2023-03-25T03:52:51.695Z,34.40
2023-03-25T03:54:01.822Z,21.40
2023-03-25T03:55:10.985Z,19.77
2023-03-25T03:56:22.133Z,19.02
2023-03-25T03:57:30.560Z,13.50
2023-03-25T03:58:43.223Z,16.15
2023-03-25T03:59:53.791Z,23.33
2023-03-25T04:01:06.754Z,24.20
2023-03-25T04:02:17.380Z,20.25
2023-03-25T04:03:28.580Z,20.83
2023-03-25T04:04:31.886Z,25.08
2023-03-25T04:05:38.760Z,21.42
2023-03-25T04:06:44.249Z,17.65
2023-03-25T04:07:55.168Z,25.77
2023-03-25T04:10:15.037Z,17.77
2023-03-25T04:11:25.132Z,20.75
2023-03-25T04:12:32.716Z,21.33
2023-03-25T04:13:40.548Z,13.77
2023-03-25T04:14:43.461Z,18.15
2023-03-25T04:15:48.577Z,20.02
2023-03-25T04:16:53.318Z,17.77
2023-03-25T04:17:58.091Z,23.17
2023-03-25T04:19:00.181Z,20.77
2023-03-25T04:20:08.996Z,15.48
2023-03-25T04:23:10.063Z,19.48
2023-03-25T04:24:12.263Z,16.60
2023-03-25T04:25:17.194Z,16.13
2023-03-25T04:26:20.103Z,18.02
2023-03-25T04:27:29.971Z,17.02
2023-03-25T04:28:36.978Z,17.13
2023-03-25T04:29:44.148Z,17.55
2023-03-25T04:30:46.699Z,24.27
2023-03-25T04:31:54.962Z,22.23
2023-03-25T04:32:57.455Z,20.13
2023-03-25T04:34:02.870Z,21.35
2023-03-25T04:35:05.680Z,15.23
2023-03-25T04:36:11.938Z,15.75
2023-03-25T04:37:16.841Z,10.88
2023-03-25T04:38:19.551Z,18.20
2023-03-25T04:39:25.893Z,21.67
2023-03-25T04:40:28.035Z,16.40
2023-03-25T04:41:33.849Z,17.10
2023-03-25T04:42:37.532Z,15.35
2023-03-25T04:43:45.427Z,16.20
2023-03-25T04:44:47.525Z,19.20
2023-03-25T04:45:55.298Z,20.23
2023-03-25T04:46:58.038Z,19.02
2023-03-25T04:48:06.187Z,14.27
2023-03-25T04:49:14.461Z,16.73
2023-03-25T04:50:23.351Z,18.38
2023-03-25T04:51:25.524Z,18.50
2023-03-25T04:52:30.635Z,19.92
2023-03-25T04:53:32.996Z,18.58
2023-03-25T04:54:38.656Z,18.77
2023-03-25T04:55:48.339Z,17.25
2023-03-25T04:56:55.114Z,20.08
2023-03-25T04:57:57.469Z,18.17
2023-03-25T04:59:04.766Z,21.27
2023-03-25T05:00:11.760Z,17.88
2023-03-25T05:01:24.424Z,22.67
2023-03-25T05:02:27.303Z,17.80
2023-03-25T05:03:32.015Z,16.67
2023-03-25T05:04:34.467Z,30.83
2023-03-25T05:05:39.281Z,17.05
2023-03-25T05:06:43.708Z,12.27
2023-03-25T05:07:49.943Z,21.83
2023-03-25T05:08:52.092Z,19.17
2023-03-25T05:09:57.368Z,19.40
2023-03-25T05:10:59.514Z,25.20
2023-03-25T05:12:04.324Z,21.02
2023-03-25T05:13:08.393Z,8.38
2023-03-25T05:14:18.349Z,16.00
2023-03-25T05:15:20.570Z,15.25
2023-03-25T05:16:25.856Z,18.00
2023-03-25T05:17:30.076Z,18.40
2023-03-25T05:18:34.890Z,21.02
2023-03-25T05:19:37.063Z,21.95
2023-03-25T05:20:43.350Z,19.90
2023-03-25T05:21:45.671Z,14.75
2023-03-25T05:22:50.396Z,19.77
2023-03-25T05:23:52.949Z,17.60
2023-03-25T05:24:57.630Z,22.83
2023-03-25T05:26:00.198Z,24.45
2023-03-25T05:27:04.957Z,21.65
2023-03-25T05:28:10.085Z,20.92
2023-03-25T05:29:19.426Z,18.98
2023-03-25T05:30:21.707Z,15.60
2023-03-25T05:31:26.383Z,18.63
2023-03-25T05:32:30.328Z,17.40
2023-03-25T05:33:35.231Z,18.05
2023-03-25T05:34:38.842Z,18.02
2023-03-25T05:35:43.740Z,20.73
2023-03-25T05:36:46.080Z,19.05
2023-03-25T05:37:51.724Z,16.92
2023-03-25T05:38:54.722Z,26.77
2023-03-25T05:39:59.521Z,17.42
2023-03-25T05:41:01.694Z,16.05
2023-03-25T05:42:06.518Z,18.98
2023-03-25T05:43:08.812Z,14.88
2023-03-25T05:44:14.917Z,17.13
2023-03-25T05:45:19.903Z,19.15
2023-03-25T05:46:24.726Z,18.98
2023-03-25T05:47:29.277Z,16.08
2023-03-25T05:48:35.978Z,24.58
2023-03-25T05:49:38.078Z,18.50
2023-03-25T05:50:43.432Z,17.67
2023-03-25T05:51:46.046Z,23.95
2023-03-25T05:52:52.609Z,18.83
2023-03-25T05:53:54.831Z,17.20
2023-03-25T05:54:59.571Z,23.67
2023-03-25T05:56:01.732Z,18.77
2023-03-25T05:57:06.710Z,15.00
2023-03-25T05:58:08.865Z,12.10
2023-03-25T05:59:14.648Z,16.50
2023-03-25T06:00:23.414Z,19.48
2023-03-25T06:01:33.111Z,17.48
2023-03-25T06:02:39.001Z,12.88
2023-03-25T06:03:44.129Z,19.27
2023-03-25T06:04:50.774Z,17.75
2023-03-25T06:05:56.782Z,18.92
2023-03-25T06:06:59.049Z,21.17
2023-03-25T06:08:04.050Z,21.52
2023-03-25T06:09:07.260Z,22.17
2023-03-25T06:10:17.358Z,20.23
2023-03-25T06:11:20.818Z,17.48
2023-03-25T06:12:27.801Z,16.83
2023-03-25T06:13:34.283Z,17.60
2023-03-25T06:14:36.414Z,17.67
2023-03-25T06:15:44.816Z,16.05
2023-03-25T06:16:47.373Z,18.30
2023-03-25T06:17:52.173Z,18.33
2023-03-25T06:18:56.618Z,21.77
2023-03-25T06:20:05.920Z,21.40
2023-03-25T06:21:08.897Z,19.63
2023-03-25T06:22:14.696Z,18.15
2023-03-25T06:23:16.926Z,18.17
2023-03-25T06:24:22.399Z,17.48
2023-03-25T06:25:28.677Z,18.60
2023-03-25T06:26:33.488Z,27.48
2023-03-25T06:27:40.655Z,22.60
2023-03-25T06:28:46.328Z,17.75
2023-03-25T06:29:48.833Z,17.88
2023-03-25T06:30:57.349Z,16.90
2023-03-25T06:31:59.536Z,20.38
2023-03-25T06:33:06.277Z,20.35
2023-03-25T06:34:08.477Z,22.95
2023-03-25T06:35:18.461Z,17.35
2023-03-25T06:36:20.865Z,17.83
2023-03-25T06:37:26.200Z,21.25
2023-03-25T06:38:30.257Z,10.80
2023-03-25T06:39:38.161Z,15.80
2023-03-25T06:40:43.045Z,15.55
2023-03-25T06:41:45.260Z,17.30
2023-03-25T06:42:50.052Z,15.00
2023-03-25T06:43:52.349Z,17.52
2023-03-25T06:44:57.568Z,18.33
2023-03-25T06:46:02.463Z,23.63
2023-03-25T06:47:07.666Z,25.08
2023-03-25T06:48:09.950Z,23.27
2023-03-25T06:49:14.723Z,18.15
2023-03-25T06:50:16.853Z,17.05
2023-03-25T06:51:22.876Z,19.00
2023-03-25T06:52:25.083Z,17.88
2023-03-25T06:53:29.999Z,18.15
2023-03-25T06:54:32.301Z,18.58
2023-03-25T06:55:37.027Z,13.32
2023-03-25T06:56:39.337Z,19.60
2023-03-25T06:57:44.717Z,12.88
2023-03-25T06:58:47.094Z,18.65
2023-03-25T06:59:51.914Z,20.67
2023-03-25T07:00:54.953Z,18.60
2023-03-25T07:02:02.463Z,21.73
2023-03-25T07:03:07.453Z,24.48
2023-03-25T07:04:12.262Z,19.58
2023-03-25T07:05:14.505Z,18.55
2023-03-25T07:06:21.978Z,21.90
2023-03-25T07:07:24.097Z,18.58
2023-03-25T07:08:28.838Z,17.48
2023-03-25T07:09:30.977Z,19.13
2023-03-25T07:10:35.710Z,19.02
2023-03-25T07:11:37.998Z,18.73
2023-03-25T07:12:42.749Z,19.13
2023-03-25T07:13:44.848Z,18.23
2023-03-25T07:14:54.144Z,18.35
2023-03-25T07:15:56.780Z,18.73
2023-03-25T07:17:04.180Z,21.98
2023-03-25T07:18:06.481Z,20.55
2023-03-25T07:19:11.380Z,13.82
2023-03-25T07:20:15.840Z,16.23
2023-03-25T07:21:22.153Z,16.13
2023-03-25T07:22:24.419Z,17.45
2023-03-25T07:23:29.588Z,18.45
2023-03-25T07:24:31.864Z,10.68
2023-03-25T07:25:37.228Z,20.77
2023-03-25T07:26:39.397Z,18.63
2023-03-25T07:27:44.310Z,18.98
2023-03-25T07:28:48.201Z,16.42
2023-03-25T07:29:53.074Z,19.20
2023-03-25T07:30:55.151Z,17.75
2023-03-25T07:31:59.930Z,19.65
2023-03-25T07:33:04.806Z,21.80
2023-03-25T07:34:09.587Z,21.52
2023-03-25T07:35:11.947Z,21.40
2023-03-25T07:36:16.915Z,16.63
2023-03-25T07:37:18.982Z,18.05
2023-03-25T07:38:23.724Z,20.40
2023-03-25T07:39:25.958Z,31.83
2023-03-25T07:40:30.632Z,18.80
2023-03-25T07:41:32.724Z,18.38
2023-03-25T07:42:39.181Z,13.38
2023-03-25T07:43:42.123Z,18.17
2023-03-25T07:44:46.862Z,21.30
2023-03-25T07:45:51.588Z,17.83
2023-03-25T07:46:53.845Z,17.70
2023-03-25T07:47:58.761Z,19.90
2023-03-25T07:49:03.619Z,20.02
2023-03-25T07:50:09.845Z,20.15
2023-03-25T07:51:14.572Z,16.10
2023-03-25T07:52:16.706Z,17.58
2023-03-25T07:53:21.899Z,17.27
2023-03-25T07:54:24.665Z,11.07
2023-03-25T07:55:29.416Z,16.00
2023-03-25T07:56:31.612Z,15.02
2023-03-25T07:57:36.284Z,15.73
2023-03-25T07:58:38.680Z,14.25
2023-03-25T07:59:43.519Z,13.93
2023-03-25T08:00:45.944Z,21.85
2023-03-25T08:01:50.992Z,10.45
2023-03-25T08:02:53.188Z,15.48
2023-03-25T08:03:58.041Z,17.45
2023-03-25T08:05:06.051Z,20.08
2023-03-25T08:06:11.825Z,20.58
2023-03-25T08:07:14.010Z,27.75
2023-03-25T08:08:18.997Z,17.90
2023-03-25T08:09:23.815Z,18.52
2023-03-25T08:10:26.921Z,20.10
2023-03-25T08:11:33.193Z,18.90
2023-03-25T08:12:37.612Z,20.48
2023-03-25T08:13:42.547Z,15.90
2023-03-25T08:14:44.665Z,18.27
2023-03-25T08:15:49.787Z,21.08
2023-03-25T08:16:52.152Z,9.85
2023-03-25T08:17:57.868Z,15.90
2023-03-25T08:19:00.147Z,10.95
2023-03-25T08:20:09.545Z,13.95
2023-03-25T08:21:11.875Z,14.20
2023-03-25T08:22:16.639Z,12.55
2023-03-25T08:23:20.229Z,14.43
2023-03-25T08:24:27.069Z,10.15
2023-03-25T08:25:29.814Z,18.67
2023-03-25T08:26:35.233Z,7.20
2023-03-25T08:27:37.403Z,7.38
2023-03-25T08:28:42.136Z,7.15
2023-03-25T08:29:44.330Z,5.70
2023-03-25T08:30:49.607Z,10.68
2023-03-25T08:31:53.722Z,8.20
2023-03-25T08:32:58.494Z,5.63
2023-03-25T08:35:38.257Z,6.57
2023-03-25T08:36:40.443Z,9.02
2023-03-25T08:37:45.168Z,8.60
2023-03-25T08:38:47.532Z,5.57
2023-03-25T08:39:52.222Z,8.90
2023-03-25T08:40:54.373Z,9.85
2023-03-25T08:41:59.473Z,7.07
2023-03-25T08:43:03.652Z,7.95
2023-03-25T08:44:08.877Z,9.98
2023-03-25T08:45:12.134Z,11.02
2023-03-25T08:46:17.128Z,14.15
2023-03-25T08:47:19.371Z,8.55
2023-03-25T08:48:25.075Z,8.73
2023-03-25T08:49:29.788Z,8.13
2023-03-25T08:50:34.547Z,6.30
2023-03-25T08:51:39.284Z,6.15
2023-03-25T08:52:42.244Z,6.72
2023-03-25T08:53:46.953Z,8.40
2023-03-25T08:54:49.212Z,6.13
2023-03-25T08:55:55.732Z,11.23
2023-03-25T08:56:58.074Z,8.70
2023-03-25T08:58:05.114Z,6.93
2023-03-25T08:59:09.808Z,26.90
2023-03-25T09:00:13.399Z,10.18
2023-03-25T09:01:18.140Z,9.18
2023-03-25T09:02:20.713Z,9.05
2023-03-25T09:03:27.252Z,8.63
2023-03-25T09:04:29.652Z,7.18
2023-03-25T09:05:39.811Z,10.85
2023-03-25T09:06:47.541Z,7.55
2023-03-25T09:07:53.384Z,11.35
2023-03-25T09:08:58.934Z,9.13
2023-03-25T09:10:04.217Z,9.48
2023-03-25T09:11:09.493Z,15.70
2023-03-25T09:12:11.824Z,18.80
2023-03-25T09:13:16.686Z,12.43
2023-03-25T09:14:18.886Z,14.82
2023-03-25T09:15:24.054Z,8.90
2023-03-25T09:16:26.382Z,7.93
2023-03-25T09:17:31.159Z,7.85
2023-03-25T09:18:33.309Z,9.35
2023-03-25T09:19:38.183Z,11.30
2023-03-25T09:20:47.860Z,8.82
2023-03-25T09:21:52.562Z,9.20
2023-03-25T09:22:54.863Z,8.23
2023-03-25T09:23:59.571Z,9.57
2023-03-25T09:25:01.790Z,9.85
2023-03-25T09:26:06.779Z,10.13
2023-03-25T09:27:09.404Z,14.48
2023-03-25T09:28:14.783Z,14.45
2023-03-25T09:29:17.235Z,13.73
2023-03-25T09:30:22.138Z,14.10
2023-03-25T09:31:24.632Z,9.27
2023-03-25T09:32:29.523Z,10.40
2023-03-25T09:33:32.025Z,9.32
2023-03-25T09:34:38.342Z,9.95
2023-03-25T09:35:43.153Z,10.13
2023-03-25T09:36:48.278Z,10.68
2023-03-25T09:37:53.028Z,9.05
2023-03-25T09:38:55.209Z,8.95
2023-03-25T09:40:00.306Z,8.20
2023-03-25T09:41:05.532Z,9.23
2023-03-25T09:42:28.088Z,12.05
2023-03-25T09:43:42.850Z,11.52
2023-03-25T09:44:55.700Z,11.70
2023-03-25T09:46:02.928Z,9.45
2023-03-25T09:47:06.131Z,11.60
2023-03-25T09:48:27.812Z,14.10
2023-03-25T09:49:39.216Z,12.05
2023-03-25T09:50:48.361Z,10.68
2023-03-25T09:53:07.985Z,12.90
2023-03-25T09:54:23.437Z,13.90
2023-03-25T09:55:29.106Z,7.72
2023-03-25T09:56:42.166Z,9.57
2023-03-25T09:57:49.340Z,9.30
2023-03-25T09:58:57.303Z,9.45
2023-03-25T10:00:02.203Z,8.30
2023-03-25T10:01:31.506Z,11.10
2023-03-25T10:02:43.307Z,11.02
2023-03-25T10:03:56.020Z,7.63
2023-03-25T10:05:40.268Z,12.50
2023-03-25T10:06:54.824Z,15.48
2023-03-25T10:08:13.660Z,7.93
2023-03-25T10:09:34.750Z,14.10
2023-03-25T10:10:46.288Z,8.27
2023-03-25T10:11:58.427Z,11.68
2023-03-25T10:13:15.104Z,18.20
2023-03-25T10:14:25.178Z,13.32
2023-03-25T10:15:32.698Z,10.27
2023-03-25T10:16:51.354Z,12.23
2023-03-25T10:18:07.774Z,9.35
2023-03-25T10:19:27.935Z,14.50
2023-03-25T10:20:42.404Z,11.27
2023-03-25T10:21:55.947Z,10.32
2023-03-25T10:23:07.835Z,9.85
2023-03-25T10:24:21.438Z,13.98
2023-03-25T10:25:27.667Z,11.50
2023-03-25T10:26:39.572Z,13.57
2023-03-25T10:27:44.963Z,12.63
2023-03-25T10:28:54.599Z,12.60
2023-03-25T10:30:01.480Z,12.85
2023-03-25T10:31:08.831Z,11.70
2023-03-25T10:32:17.116Z,15.38
2023-03-25T10:33:32.013Z,19.52
2023-03-25T10:34:40.695Z,13.70
2023-03-25T10:35:49.004Z,11.55
2023-03-25T10:36:57.908Z,8.50
2023-03-25T10:38:13.904Z,15.32
2023-03-25T10:39:25.482Z,14.93
2023-03-25T10:40:49.376Z,25.00
2023-03-25T10:45:49.112Z,16.55
2023-03-25T10:47:06.057Z,15.65
2023-03-25T10:48:14.469Z,15.43
2023-03-25T10:49:22.265Z,18.52
2023-03-25T10:50:28.012Z,11.32
2023-03-25T10:51:32.650Z,9.02
2023-03-25T10:52:40.192Z,11.68
2023-03-25T10:53:45.450Z,10.73
2023-03-25T10:58:20.509Z,21.77
2023-03-25T10:59:42.028Z,43.08
2023-03-25T11:00:44.678Z,11.38
2023-03-25T11:01:51.363Z,13.00
2023-03-25T11:02:58.966Z,7.93
2023-03-25T11:04:04.249Z,8.73
2023-03-25T11:05:13.273Z,9.00
2023-03-25T11:06:24.804Z,14.00
2023-03-25T11:07:33.830Z,7.03
2023-03-25T11:08:58.693Z,9.05
2023-03-25T11:10:20.607Z,38.67
2023-03-25T11:11:32.882Z,21.77
2023-03-25T11:12:43.331Z,29.38
2023-03-25T11:13:49.879Z,22.02
2023-03-25T11:14:57.547Z,10.13
2023-03-25T11:16:06.904Z,9.70
2023-03-25T11:17:15.586Z,14.82
2023-03-25T11:18:29.086Z,45.90
2023-03-25T11:19:37.413Z,20.05
2023-03-25T11:20:52.044Z,21.45
2023-03-25T11:21:58.883Z,17.45
2023-03-25T11:23:11.969Z,26.88
2023-03-25T11:24:20.577Z,20.55
2023-03-25T11:25:30.002Z,20.35
2023-03-25T11:26:39.316Z,10.70
2023-03-25T11:27:49.734Z,10.80
2023-03-25T11:28:59.328Z,9.75
2023-03-25T11:30:05.684Z,9.88
2023-03-25T11:31:18.630Z,8.50
2023-03-25T11:33:01.651Z,14.20
2023-03-25T11:34:08.021Z,18.92
2023-03-25T11:35:31.135Z,9.35
2023-03-25T11:36:41.825Z,12.60
2023-03-25T11:37:51.449Z,8.57
2023-03-25T11:39:01.094Z,8.77
2023-03-25T11:40:21.265Z,18.48
2023-03-25T11:41:24.210Z,13.27
2023-03-25T11:42:35.274Z,12.98
2023-03-25T11:43:39.086Z,17.95
2023-03-25T11:44:44.411Z,10.93
2023-03-25T11:45:46.837Z,7.40
2023-03-25T11:46:55.485Z,8.23
2023-03-25T11:48:03.284Z,12.35
2023-03-25T11:49:10.188Z,9.50
2023-03-25T11:50:24.585Z,12.63
2023-03-25T11:51:30.184Z,10.90
2023-03-25T11:52:42.645Z,10.07
2023-03-25T11:53:50.059Z,12.00
2023-03-25T11:54:54.155Z,9.00
2023-03-25T11:56:10.829Z,11.18
2023-03-25T11:57:16.684Z,11.27
2023-03-25T11:58:25.050Z,10.13
2023-03-25T11:59:38.330Z,8.65
2023-03-25T12:00:42.377Z,11.57
2023-03-25T12:01:50.157Z,12.30
2023-03-25T12:03:01.078Z,12.30
2023-03-25T12:04:15.051Z,13.90
2023-03-25T12:05:17.664Z,11.48
2023-03-25T12:06:24.556Z,16.58
2023-03-25T12:07:29.510Z,13.25
2023-03-25T12:08:46.480Z,9.20
2023-03-25T12:09:56.674Z,10.93
2023-03-25T12:11:09.353Z,8.05
2023-03-25T12:12:49.759Z,12.27
2023-03-25T12:14:29.950Z,14.77
2023-03-25T12:15:41.826Z,13.18
2023-03-25T12:16:49.914Z,11.00
2023-03-25T12:18:10.792Z,11.48
2023-03-25T12:19:24.171Z,15.18
2023-03-25T12:20:34.431Z,73.60
2023-03-25T12:21:56.471Z,18.17
2023-03-25T12:24:28.145Z,18.65
2023-03-25T12:25:50.334Z,17.40
2023-03-25T12:27:14.675Z,20.55
2023-03-25T12:28:40.342Z,12.65
2023-03-25T12:29:51.832Z,16.92
2023-03-25T12:31:04.692Z,22.75
2023-03-25T12:32:20.597Z,16.63
2023-03-25T12:33:40.901Z,17.17
2023-03-25T12:34:57.708Z,14.57
2023-03-25T12:36:18.293Z,15.23
2023-03-25T12:37:33.572Z,12.95
2023-03-25T12:38:48.679Z,13.23
2023-03-25T12:40:11.182Z,11.18
2023-03-25T12:41:20.505Z,18.40
2023-03-25T12:42:38.923Z,15.45
2023-03-25T12:44:00.563Z,14.10
2023-03-25T12:45:50.082Z,16.38
2023-03-25T12:47:18.160Z,18.70
2023-03-25T12:48:41.920Z,17.33
2023-03-25T12:50:09.873Z,16.85
2023-03-25T12:51:22.812Z,22.90
2023-03-25T12:52:37.514Z,17.83
2023-03-25T12:53:53.453Z,15.80
2023-03-25T12:55:09.089Z,19.45
2023-03-25T12:56:29.424Z,24.27
2023-03-25T12:57:50.725Z,15.45
2023-03-25T12:59:18.784Z,13.10
2023-03-25T13:00:36.018Z,12.65
2023-03-25T13:01:49.830Z,11.35
2023-03-25T13:03:26.824Z,11.27
2023-03-25T13:05:02.107Z,17.98
2023-03-25T13:06:19.112Z,9.55
2023-03-25T13:07:28.792Z,18.67
2023-03-25T13:08:36.053Z,14.70
2023-03-25T13:09:55.134Z,18.05
2023-03-25T13:11:03.002Z,8.77
2023-03-25T13:12:15.114Z,8.77
2023-03-25T13:13:24.547Z,11.60
2023-03-25T13:14:33.814Z,12.05
2023-03-25T13:15:40.597Z,10.00
2023-03-25T13:16:46.911Z,10.85
2023-03-25T13:17:57.133Z,15.32
2023-03-25T13:19:08.494Z,13.25
2023-03-25T13:20:11.761Z,12.50
2023-03-25T13:21:21.955Z,10.50
2023-03-25T13:22:32.174Z,14.23
2023-03-25T13:23:36.977Z,9.20
2023-03-25T13:24:47.418Z,9.48
2023-03-25T13:25:54.543Z,9.10
2023-03-25T13:27:00.888Z,19.20
2023-03-25T13:28:09.959Z,16.10
2023-03-25T13:29:27.929Z,11.40
2023-03-25T13:30:37.761Z,11.20
2023-03-25T13:32:10.998Z,12.15
2023-03-25T13:35:32.339Z,13.32
2023-03-25T13:36:41.762Z,7.88
2023-03-25T13:37:49.739Z,8.43
2023-03-25T13:38:59.493Z,8.60
2023-03-25T13:40:18.207Z,9.30
2023-03-25T13:41:28.760Z,8.15
2023-03-25T13:42:38.442Z,10.70
2023-03-25T13:43:53.643Z,10.90
2023-03-25T13:45:00.672Z,7.78
2023-03-25T13:46:10.690Z,7.40
2023-03-25T13:47:19.229Z,8.13
2023-03-25T13:48:29.889Z,9.45
2023-03-25T13:49:39.588Z,6.60
2023-03-25T13:50:44.637Z,9.60
2023-03-25T13:51:49.402Z,7.63
2023-03-25T13:52:58.893Z,9.05
2023-03-25T13:54:08.790Z,8.70
2023-03-25T13:55:15.913Z,9.05
2023-03-25T13:57:02.249Z,9.52
2023-03-25T13:58:42.420Z,9.90
2023-03-25T14:00:10.307Z,7.50
2023-03-25T14:01:31.582Z,8.77
2023-03-25T14:02:54.785Z,8.93
2023-03-25T14:04:21.843Z,6.90
2023-03-25T14:05:53.152Z,11.73
2023-03-25T14:07:34.981Z,10.43
2023-03-25T14:09:15.642Z,6.95
2023-03-25T14:10:46.934Z,11.07
2023-03-25T14:11:55.823Z,8.70
2023-03-25T14:13:06.096Z,7.55
2023-03-25T14:14:13.265Z,7.53
2023-03-25T14:15:24.658Z,8.75
2023-03-25T14:16:33.404Z,13.75
2023-03-25T14:17:36.998Z,14.00
2023-03-25T14:18:45.706Z,10.68
2023-03-25T14:19:55.597Z,6.38
2023-03-25T14:21:01.290Z,9.80
2023-03-25T14:22:11.342Z,11.73
2023-03-25T14:23:22.896Z,9.68
2023-03-25T14:24:32.920Z,11.73
2023-03-25T14:25:45.039Z,10.43
2023-03-25T14:26:51.029Z,8.15
2023-03-25T14:27:56.763Z,6.30
2023-03-25T14:29:06.302Z,10.38
2023-03-25T14:30:26.540Z,6.38
2023-03-25T14:31:32.120Z,8.73
2023-03-25T14:32:39.131Z,6.38
2023-03-25T14:34:28.396Z,10.95
2023-03-25T14:36:00.550Z,13.38
2023-03-25T14:37:41.800Z,9.43
2023-03-25T14:38:53.896Z,6.53
2023-03-25T14:40:00.996Z,16.67
2023-03-25T14:41:04.114Z,7.80
2023-03-25T14:44:20.316Z,9.90
2023-03-25T14:46:38.028Z,16.02
2023-03-25T14:47:39.451Z,27.45
2023-03-25T14:48:47.968Z,12.07
2023-03-25T14:49:54.765Z,9.88
2023-03-25T14:51:42.630Z,10.65
2023-03-25T14:52:51.069Z,12.88
2023-03-25T14:54:00.249Z,9.70
2023-03-25T14:55:09.080Z,9.73
2023-03-25T14:56:20.809Z,9.52
2023-03-25T14:57:25.015Z,9.90
2023-03-25T14:58:38.036Z,22.33
2023-03-25T14:59:46.478Z,15.80
2023-03-25T15:00:55.713Z,23.17
2023-03-25T15:02:07.225Z,19.42
2023-03-25T15:04:33.643Z,17.05
2023-03-25T15:05:40.076Z,18.27
2023-03-25T15:06:43.571Z,13.25
2023-03-25T15:08:16.924Z,16.40
2023-03-25T15:09:32.568Z,20.27
2023-03-25T15:10:42.537Z,8.00
2023-03-25T15:11:53.354Z,14.68